Time;durP1;ratioP1;P1;durP2;ratioP2;P2;SDS_P1;SDS_P2;PMS_P1;PMS_P2;Temp;Humidity;BMP_temperature;BMP_pressure;BME280_temperature;BME280_humidity;BME280_pressure;Samples;Min_cycle;Max_cycle;Signal;HPM_P1;HPM_P2
2023/10/01 00:00:19;;;;;;;24.50;12.50;;;;;;;11.40;100.00;102271.81;5072775;28;20475;-70
2023/10/01 00:02:45;;;;;;;23.35;11.60;;;;;;;11.41;100.00;102273.59;5072888;28;20033;-69
2023/10/01 00:05:11;;;;;;;23.45;12.02;;;;;;;11.42;100.00;102278.03;5072784;28;20025;-69
2023/10/01 00:07:37;;;;;;;23.92;12.13;;;;;;;11.38;100.00;102281.47;5072614;28;20032;-67
2023/10/01 00:10:12;;;;;;;23.45;12.02;;;;;;;11.41;100.00;102273.59;5072866;28;20472;-69
2023/10/01 00:12:39;;;;;;;23.13;11.45;;;;;;;11.43;100.00;102274.53;5071697;28;20042;-70
2023/10/01 00:15:10;;;;;;;23.25;11.60;;;;;;;11.45;100.00;102282.53;5072555;28;20051;-70
2023/10/01 00:17:35;;;;;;;22.55;11.18;;;;;;;11.38;100.00;102278.81;5072463;28;20082;-69
2023/10/01 00:20:06;;;;;;;23.08;11.18;;;;;;;11.39;100.00;102275.31;5072191;28;20029;-70
2023/10/01 00:22:33;;;;;;;22.60;11.07;;;;;;;11.34;100.00;102277.88;5072178;28;20051;-69
2023/10/01 00:24:59;;;;;;;23.30;11.23;;;;;;;11.41;100.00;102278.00;5072508;28;20052;-70
2023/10/01 00:27:24;;;;;;;23.08;11.27;;;;;;;11.34;100.00;102284.91;5072677;28;20063;-69
2023/10/01 00:29:49;;;;;;;22.65;11.27;;;;;;;11.33;100.00;102277.84;5072288;28;20437;-70
2023/10/01 00:32:15;;;;;;;23.48;10.98;;;;;;;11.36;100.00;102283.19;5072386;28;20033;-68
2023/10/01 00:34:40;;;;;;;21.83;10.43;;;;;;;11.33;100.00;102276.06;5072531;28;20021;-67
2023/10/01 00:37:06;;;;;;;21.67;10.50;;;;;;;11.30;100.00;102267.16;5072345;28;20021;-69
2023/10/01 00:39:32;;;;;;;23.40;10.90;;;;;;;11.30;100.00;102272.44;5071316;28;20064;-69
2023/10/01 00:41:59;;;;;;;21.65;10.18;;;;;;;11.30;100.00;102267.16;5072438;28;20036;-69
2023/10/01 00:44:24;;;;;;;23.05;10.27;;;;;;;11.30;100.00;102269.78;5072337;28;20032;-69
2023/10/01 00:46:50;;;;;;;22.52;10.82;;;;;;;11.27;100.00;102275.00;5072516;28;20106;-70
2023/10/01 00:49:17;;;;;;;21.50;9.90;;;;;;;11.25;100.00;102268.81;5072378;28;20043;-69
2023/10/01 00:51:43;;;;;;;22.13;10.20;;;;;;;11.26;100.00;102252.06;5072252;28;20052;-69
2023/10/01 00:54:10;;;;;;;23.00;10.38;;;;;;;11.26;100.00;102254.72;5072441;28;20037;-70
2023/10/01 00:56:38;;;;;;;21.20;9.80;;;;;;;11.25;100.00;102247.63;5072297;28;20032;-70
2023/10/01 00:59:04;;;;;;;21.70;9.70;;;;;;;11.27;100.00;102252.09;5072162;28;20029;-69
2023/10/01 01:01:29;;;;;;;22.25;9.93;;;;;;;11.28;100.00;102247.69;5072324;28;20024;-69
2023/10/01 01:03:55;;;;;;;22.23;9.70;;;;;;;11.28;100.00;102242.41;5072156;28;20025;-69
2023/10/01 01:06:26;;;;;;;21.60;9.57;;;;;;;11.28;100.00;102239.75;5072342;28;20060;-68
2023/10/01 01:08:54;;;;;;;20.73;8.95;;;;;;;11.27;100.00;102235.31;5072082;28;20438;-69
2023/10/01 01:11:21;;;;;;;21.85;9.27;;;;;;;11.30;100.00;102232.72;5072227;28;20387;-69
2023/10/01 01:13:48;;;;;;;20.95;8.77;;;;;;;11.31;100.00;102226.59;5072021;28;20043;-68
2023/10/01 01:16:14;;;;;;;22.52;8.80;;;;;;;11.30;100.00;102224.78;5071972;28;20031;-69
2023/10/01 01:18:42;;;;;;;21.88;8.90;;;;;;;11.32;100.00;102225.72;5071996;28;20036;-68
2023/10/01 01:21:10;;;;;;;22.23;8.68;;;;;;;11.34;100.00;102221.34;5071925;28;20075;-69
2023/10/01 01:23:36;;;;;;;22.33;8.30;;;;;;;11.36;100.00;102219.66;5070982;28;20478;-69
2023/10/01 01:26:02;;;;;;;21.35;8.32;;;;;;;11.41;100.00;102225.06;5072118;28;20032;-68
2023/10/01 01:28:30;;;;;;;20.67;8.43;;;;;;;11.40;100.00;102221.53;5071751;28;20052;-68
2023/10/01 01:31:00;;;;;;;20.92;8.07;;;;;;;11.44;100.00;102227.78;5071917;28;20024;-67
2023/10/01 01:33:32;;;;;;;21.08;8.20;;;;;;;11.42;100.00;102219.78;5071652;28;20097;-68
2023/10/01 01:36:06;;;;;;;21.35;8.23;;;;;;;11.41;100.00;102223.28;5072040;28;20035;-69
2023/10/01 01:38:37;;;;;;;21.10;7.68;;;;;;;11.38;100.00;102223.22;5075269;28;20036;-69
2023/10/01 01:41:03;;;;;;;21.48;8.32;;;;;;;11.37;100.00;102218.78;5075523;28;20070;-68
2023/10/01 01:43:32;;;;;;;20.33;7.88;;;;;;;11.42;100.00;102218.91;5075378;28;20086;-69
2023/10/01 01:46:00;;;;;;;20.45;7.60;;;;;;;11.44;100.00;102209.22;5075324;28;20028;-69
2023/10/01 01:51:00;;;;;;;20.75;7.70;;;;;;;11.49;100.00;102211.13;5071932;28;20070;-69
2023/10/01 01:53:35;;;;;;;21.15;7.70;;;;;;;11.51;100.00;102213.81;5071705;28;20028;-68
2023/10/01 01:56:13;;;;;;;20.23;7.72;;;;;;;11.48;100.00;102217.28;5072165;28;20024;-69
2023/10/01 01:58:40;;;;;;;19.92;8.07;;;;;;;11.41;100.00;102212.69;5074919;28;20040;-68
2023/10/01 02:01:25;;;;;;;21.25;8.30;;;;;;;11.39;100.00;102210.88;5075289;28;20020;-68
2023/10/01 02:03:51;;;;;;;20.40;7.65;;;;;;;11.37;100.00;102215.25;5075000;28;20052;-68
2023/10/01 02:06:26;;;;;;;20.83;7.60;;;;;;;11.31;100.00;102210.69;5075161;28;20055;-68
2023/10/01 02:08:54;;;;;;;20.10;8.02;;;;;;;11.26;100.00;102212.38;5074901;28;20028;-68
2023/10/01 02:11:21;;;;;;;21.15;7.80;;;;;;;11.24;100.00;102211.41;5074791;28;20031;-68
2023/10/01 02:13:58;;;;;;;21.02;8.18;;;;;;;11.23;100.00;102199.06;5075214;28;20090;-68
2023/10/01 02:22:03;;;;;;;21.17;7.82;;;;;;;11.18;100.00;102192.75;5072863;28;20039;-66
2023/10/01 02:24:44;;;;;;;20.75;7.80;;;;;;;11.19;100.00;102194.56;5071317;28;20107;-69
2023/10/01 02:27:14;;;;;;;20.63;7.57;;;;;;;11.19;100.00;102184.84;5074590;28;20115;-68
2023/10/01 02:32:24;;;;;;;20.17;7.80;;;;;;;11.08;100.00;102187.25;5070648;28;20044;-68
2023/10/01 02:34:50;;;;;;;19.73;7.38;;;;;;;11.06;100.00;102181.00;5074637;28;20028;-67
2023/10/01 02:37:25;;;;;;;20.25;7.55;;;;;;;11.07;100.00;102189.88;5074244;28;20134;-64
2023/10/01 02:39:51;;;;;;;20.80;7.75;;;;;;;11.00;100.00;102183.53;5074291;28;20035;-62
2023/10/01 02:42:22;;;;;;;20.38;7.18;;;;;;;11.02;100.00;102192.38;5074573;28;20029;-62
2023/10/01 02:44:48;;;;;;;21.10;7.60;;;;;;;11.01;100.00;102201.19;5073740;28;20418;-68
2023/10/01 02:47:18;;;;;;;19.20;7.18;;;;;;;11.01;100.00;102200.28;5074126;28;20025;-69
2023/10/01 02:49:52;;;;;;;21.42;7.63;;;;;;;10.93;100.00;102198.34;5074090;28;20037;-67
2023/10/01 02:52:36;;;;;;;20.90;7.75;;;;;;;10.92;100.00;102206.25;5074229;28;20024;-67
2023/10/01 02:55:16;;;;;;;21.38;7.93;;;;;;;10.90;100.00;102200.91;5071182;28;20025;-70
2023/10/01 02:57:42;;;;;;;20.63;7.85;;;;;;;10.88;100.00;102202.66;5074072;28;20041;-69
2023/10/01 03:02:52;;;;;;;21.13;7.97;;;;;;;10.91;100.00;102199.19;5074039;28;20033;-69
2023/10/01 03:05:41;;;;;;;19.13;7.55;;;;;;;10.91;100.00;102204.47;5073843;28;20115;-69
2023/10/01 03:08:04;;;;;;;20.58;7.90;;;;;;;10.88;100.00;102204.38;5070621;28;20486;-69
2023/10/01 03:10:31;;;;;;;20.60;8.02;;;;;;;10.87;100.00;102197.31;5073863;28;20032;-69
2023/10/01 03:12:59;;;;;;;21.58;8.00;;;;;;;10.87;100.00;102199.97;5072495;28;20036;-70
2023/10/01 03:15:35;;;;;;;21.80;7.75;;;;;;;10.86;100.00;102190.22;5069563;28;20035;-69
2023/10/01 03:18:08;;;;;;;20.77;7.90;;;;;;;10.87;100.00;102197.31;5070641;28;20375;-69
2023/10/01 03:23:26;;;;;;;21.50;8.00;;;;;;;10.87;100.00;102198.19;5073362;28;20032;-69
2023/10/01 03:28:34;;;;;;;20.42;8.00;;;;;;;10.80;100.00;102197.16;5069740;28;20059;-68
2023/10/01 03:31:12;;;;;;;21.60;7.70;;;;;;;10.81;100.00;102201.59;5073265;28;20555;-69
2023/10/01 03:33:39;;;;;;;21.73;8.18;;;;;;;10.79;100.00;102205.97;5073514;28;20021;-69
2023/10/01 03:36:12;;;;;;;21.13;8.10;;;;;;;10.77;100.00;102202.34;5073165;28;20059;-70
2023/10/01 03:38:45;;;;;;;20.38;7.93;;;;;;;10.79;100.00;102198.03;5073136;28;20074;-67
2023/10/01 03:41:23;;;;;;;22.38;7.95;;;;;;;10.81;100.00;102192.75;5073036;28;20096;-69
2023/10/01 03:44:06;;;;;;;21.50;8.30;;;;;;;10.78;100.00;102193.56;5056255;28;20131;-71
2023/10/01 03:46:32;;;;;;;20.48;8.00;;;;;;;10.77;100.00;102185.59;5069995;28;20036;-71
2023/10/01 03:51:53;;;;;;;20.85;8.10;;;;;;;10.70;100.00;102192.47;5071344;28;20048;-71
2023/10/01 03:54:20;;;;;;;21.25;8.00;;;;;;;10.68;100.00;102186.28;5073081;28;20387;-71
2023/10/01 03:56:58;;;;;;;22.75;8.45;;;;;;;10.71;100.00;102190.75;5072867;28;20086;-71
2023/10/01 03:59:28;;;;;;;20.85;8.23;;;;;;;10.74;100.00;102189.06;5072751;28;20189;-71
2023/10/01 04:02:00;;;;;;;20.70;7.80;;;;;;;10.77;100.00;102186.50;5072917;28;20138;-71
2023/10/01 04:04:56;;;;;;;20.75;7.97;;;;;;;10.78;100.00;102192.69;5068889;28;20028;-72
2023/10/01 04:07:22;;;;;;;20.70;8.15;;;;;;;10.73;100.00;102186.38;5072624;28;20435;-71
2023/10/01 04:09:50;;;;;;;20.88;8.40;;;;;;;10.71;100.00;102186.34;5072652;28;20028;-70
2023/10/01 04:12:20;;;;;;;21.50;8.10;;;;;;;10.69;100.00;102173.94;5072636;28;20024;-71
2023/10/01 04:14:52;;;;;;;21.30;8.18;;;;;;;10.71;100.00;102191.63;5072805;28;20032;-71
2023/10/01 04:17:25;;;;;;;20.92;7.88;;;;;;;10.72;100.00;102188.13;5072835;28;20024;-71
2023/10/01 04:20:19;;;;;;;20.88;8.10;;;;;;;10.73;100.00;102182.00;5072502;28;20028;-71
2023/10/01 04:22:40;;;;;;;21.55;8.18;;;;;;;10.71;100.00;102190.75;5069778;28;20388;-71
2023/10/01 04:25:10;;;;;;;21.17;8.07;;;;;;;10.71;100.00;102191.63;5072514;28;20033;-71
2023/10/01 04:27:36;;;;;;;21.30;7.93;;;;;;;10.71;100.00;102193.41;5072685;28;20025;-69
2023/10/01 04:30:08;;;;;;;20.42;7.68;;;;;;;10.69;100.00;102197.72;5072286;28;20052;-68
2023/10/01 04:32:34;;;;;;;21.50;8.02;;;;;;;10.72;100.00;102196.06;5071288;28;20032;-68
2023/10/01 04:34:59;;;;;;;20.20;7.53;;;;;;;10.71;100.00;102186.34;5072619;28;20025;-69
2023/10/01 04:37:37;;;;;;;22.00;7.72;;;;;;;10.72;100.00;102181.97;5068380;28;20028;-69
2023/10/01 04:40:06;;;;;;;20.48;7.53;;;;;;;10.70;100.00;102175.72;5069467;28;20459;-68
2023/10/01 04:42:37;;;;;;;21.15;8.00;;;;;;;10.71;100.00;102180.16;5072189;28;20036;-69
2023/10/01 04:45:22;;;;;;;20.48;7.90;;;;;;;10.74;100.00;102175.84;5072532;28;20038;-66
2023/10/01 04:48:00;;;;;;;20.25;7.97;;;;;;;10.75;100.00;102182.03;5072549;28;20472;-69
2023/10/01 04:50:27;;;;;;;21.23;8.10;;;;;;;10.74;100.00;102186.41;5068605;28;20086;-67
2023/10/01 04:52:58;;;;;;;21.58;7.53;;;;;;;10.74;100.00;102185.53;5072225;28;20032;-69
2023/10/01 04:55:25;;;;;;;21.45;8.00;;;;;;;10.73;100.00;102182.00;5072359;28;20024;-69
2023/10/01 04:57:51;;;;;;;21.13;7.90;;;;;;;10.73;100.00;102186.38;5072331;28;20043;-69
2023/10/01 05:00:21;;;;;;;20.25;7.63;;;;;;;10.71;100.00;102190.75;5072226;28;20025;-67
2023/10/01 05:02:47;;;;;;;22.77;8.50;;;;;;;10.74;100.00;102182.88;5072179;28;20033;-67
2023/10/01 05:05:16;;;;;;;21.38;8.07;;;;;;;10.76;100.00;102187.38;5072342;28;20120;-68
2023/10/01 05:07:42;;;;;;;21.15;8.25;;;;;;;10.87;100.00;102186.72;5074244;28;20036;-68
2023/10/01 05:10:12;;;;;;;21.08;7.65;;;;;;;10.82;100.00;102184.88;5076266;28;20395;-66
2023/10/01 05:12:43;;;;;;;21.48;8.23;;;;;;;10.76;100.00;102186.44;5076028;28;20075;-68
2023/10/01 05:15:17;;;;;;;22.15;7.93;;;;;;;10.76;100.00;102187.38;5076130;28;20036;-69
2023/10/01 05:17:44;;;;;;;22.20;8.20;;;;;;;10.79;100.00;102183.88;5075723;28;20025;-68
2023/10/01 05:20:09;;;;;;;20.98;8.23;;;;;;;10.75;100.00;102172.34;5075752;28;20483;-68
2023/10/01 05:22:46;;;;;;;22.70;8.40;;;;;;;10.73;100.00;102179.38;5076208;28;20111;-69
2023/10/01 05:25:12;;;;;;;21.65;8.20;;;;;;;10.70;100.00;102191.59;5075880;28;20040;-68
2023/10/01 05:27:40;;;;;;;21.15;8.32;;;;;;;10.71;100.00;102185.47;5075863;28;20053;-69
2023/10/01 05:30:32;;;;;;;21.60;7.90;;;;;;;10.74;100.00;102196.13;5075446;28;20491;-67
2023/10/01 05:32:52;;;;;;;21.40;8.13;;;;;;;10.70;100.00;102192.47;5075457;28;20565;-67
2023/10/01 05:35:17;;;;;;;20.90;8.07;;;;;;;10.68;100.00;102196.84;5075967;28;20029;-67
2023/10/01 05:37:45;;;;;;;22.58;8.27;;;;;;;10.67;100.00;102196.81;5075367;28;20059;-67
2023/10/01 05:40:15;;;;;;;20.85;8.10;;;;;;;10.66;100.00;102203.84;5075409;28;20364;-65
2023/10/01 05:42:41;;;;;;;22.52;8.10;;;;;;;10.66;100.00;102205.59;5075446;28;20044;-67
2023/10/01 05:45:14;;;;;;;21.65;7.97;;;;;;;10.64;100.00;102217.03;5075640;28;20025;-62
2023/10/01 05:47:51;;;;;;;22.70;8.68;;;;;;;10.67;100.00;102213.56;5075282;28;20037;-64
2023/10/01 05:50:18;;;;;;;21.73;8.52;;;;;;;10.66;100.00;102219.72;5075212;28;20032;-65
2023/10/01 05:52:46;;;;;;;22.67;8.43;;;;;;;10.67;100.00;102216.22;5075427;28;20075;-62
2023/10/01 05:55:15;;;;;;;21.75;7.88;;;;;;;10.67;100.00;102210.91;5075075;28;20025;-61
2023/10/01 05:57:41;;;;;;;21.50;7.90;;;;;;;10.66;100.00;102202.94;5075335;28;20036;-61
2023/10/01 06:00:17;;;;;;;20.85;8.18;;;;;;;10.69;100.00;102200.38;5075246;28;20020;-63
2023/10/01 06:03:00;;;;;;;21.15;8.45;;;;;;;10.70;100.00;102200.41;5074979;28;20025;-64
2023/10/01 06:05:32;;;;;;;21.98;8.20;;;;;;;10.71;100.00;102199.56;5071152;28;20124;-62
2023/10/01 06:08:14;;;;;;;22.17;8.30;;;;;;;10.74;100.00;102202.28;5071225;28;20056;-62
2023/10/01 06:11:07;;;;;;;21.05;8.27;;;;;;;10.79;100.00;102205.03;5072781;28;20529;-64
2023/10/01 06:13:37;;;;;;;22.52;8.60;;;;;;;10.88;100.00;102209.66;5101520;28;20082;-64
2023/10/01 06:16:11;;;;;;;21.77;8.07;;;;;;;10.90;100.00;102202.69;5074775;28;20021;-62
2023/10/01 06:18:41;;;;;;;22.73;8.25;;;;;;;10.92;100.00;102204.50;5073752;28;20044;-62
2023/10/01 06:21:10;;;;;;;21.30;8.43;;;;;;;10.96;100.00;102209.00;5074839;28;20468;-61
2023/10/01 06:23:49;;;;;;;22.20;8.07;;;;;;;11.02;100.00;102210.91;5074563;28;20032;-65
2023/10/01 06:26:45;;;;;;;21.33;8.10;;;;;;;11.11;100.00;102213.78;5074646;28;20024;-65
2023/10/01 06:29:13;;;;;;;21.60;8.43;;;;;;;11.20;100.00;102213.13;5072294;28;20502;-64
2023/10/01 06:32:02;;;;;;;22.23;7.93;;;;;;;11.30;100.00;102217.75;5074446;28;20104;-62
2023/10/01 06:34:32;;;;;;;20.90;8.18;;;;;;;11.39;100.00;102209.13;5070135;28;20036;-62
2023/10/01 06:36:59;;;;;;;21.05;7.85;;;;;;;11.44;100.00;102206.59;5070709;28;20028;-62
2023/10/01 06:39:25;;;;;;;21.30;8.10;;;;;;;11.54;100.00;102213.00;5074263;28;20086;-68
2023/10/01 06:41:52;;;;;;;21.55;8.15;;;;;;;11.60;100.00;102213.13;5074180;28;20032;-63
2023/10/01 06:44:19;;;;;;;20.70;8.07;;;;;;;11.68;100.00;102201.81;5074607;28;20380;-66
2023/10/01 06:46:47;;;;;;;21.75;8.27;;;;;;;11.76;100.00;102203.75;5074325;28;20032;-69
2023/10/01 06:49:12;;;;;;;21.67;8.48;;;;;;;11.85;100.00;102199.53;5074180;28;20082;-70
2023/10/01 06:51:47;;;;;;;21.80;8.48;;;;;;;11.94;100.00;102200.59;5074289;28;20036;-67
2023/10/01 06:54:13;;;;;;;22.45;8.55;;;;;;;12.06;100.00;102195.56;5074172;28;20073;-67
2023/10/01 06:56:44;;;;;;;21.38;7.90;;;;;;;12.15;100.00;102195.72;5073890;28;20043;-67
2023/10/01 07:01:47;;;;;;;21.33;7.97;;;;;;;12.35;100.00;102200.53;5074295;28;20483;-68
2023/10/01 07:04:15;;;;;;;21.33;7.97;;;;;;;12.50;100.00;102199.91;5071108;28;20024;-65
2023/10/01 07:06:44;;;;;;;21.63;7.70;;;;;;;12.64;100.00;102189.53;5073501;28;20027;-63
2023/10/01 07:09:25;;;;;;;20.77;7.60;;;;;;;12.80;100.00;102188.94;5073540;28;20032;-65
2023/10/01 07:11:56;;;;;;;21.10;7.80;;;;;;;12.99;100.00;102194.53;5070124;28;20082;-62
2023/10/01 07:14:30;;;;;;;22.15;8.07;;;;;;;13.15;100.00;102195.66;5066509;28;20056;-61
2023/10/01 07:17:00;;;;;;;21.95;7.70;;;;;;;13.30;100.00;102195.00;5073501;28;20033;-66
2023/10/01 07:19:25;;;;;;;21.27;7.72;;;;;;;13.43;100.00;102195.22;5073319;28;20040;-67
2023/10/01 07:21:56;;;;;;;21.60;7.97;;;;;;;13.59;100.00;102203.41;5073558;28;20035;-62
2023/10/01 07:24:23;;;;;;;20.60;7.47;;;;;;;13.71;100.00;102203.56;5072203;28;20025;-67
2023/10/01 07:26:50;;;;;;;22.38;7.60;;;;;;;13.86;100.00;102200.22;5073010;28;20029;-63
2023/10/01 07:29:16;;;;;;;21.00;7.50;;;;;;;14.00;100.00;102202.16;5072759;28;20044;-63
2023/10/01 07:31:43;;;;;;;22.00;7.80;;;;;;;14.11;100.00;102196.09;5073395;28;20471;-67
2023/10/01 07:34:16;;;;;;;21.17;7.65;;;;;;;14.26;100.00;102203.31;5073067;28;20056;-67
2023/10/01 07:36:42;;;;;;;21.17;7.40;;;;;;;14.37;100.00;102194.56;5071729;28;20039;-65
2023/10/01 07:39:09;;;;;;;21.27;7.40;;;;;;;14.55;100.00;102202.72;5070860;28;20093;-65
2023/10/01 07:41:38;;;;;;;21.02;7.65;;;;;;;14.67;100.00;102198.44;5072751;28;20025;-65
2023/10/01 07:44:08;;;;;;;21.40;7.78;;;;;;;14.79;100.00;102201.19;5072588;28;20070;-65
2023/10/01 07:46:36;;;;;;;21.98;8.02;;;;;;;14.98;100.00;102204.88;5073229;28;20028;-64
2023/10/01 07:49:02;;;;;;;20.63;7.28;;;;;;;15.00;100.00;102203.16;5072796;28;20033;-65
2023/10/01 07:51:28;;;;;;;20.73;7.53;;;;;;;15.17;100.00;102216.56;5072831;28;20028;-67
2023/10/01 07:53:59;;;;;;;20.98;7.63;;;;;;;15.29;100.00;102222.00;5072922;28;20032;-69
2023/10/01 07:56:25;;;;;;;21.58;7.80;;;;;;;15.47;100.00;102218.53;5071837;28;20016;-64
2023/10/01 07:59:16;;;;;;;21.67;7.70;;;;;;;15.62;100.00;102217.72;5072748;28;20047;-67
2023/10/01 08:01:46;;;;;;;21.42;7.53;;;;;;;15.67;100.00;102208.00;5071692;28;20471;-68
2023/10/01 08:07:06;;;;;;;21.33;7.20;;;;;;;16.10;100.00;102207.28;5071788;28;20097;-67
2023/10/01 08:09:39;;;;;;;20.98;7.45;;;;;;;16.32;100.00;102210.00;5072905;28;20119;-68
2023/10/01 08:12:05;;;;;;;21.45;7.10;;;;;;;16.50;100.00;102211.84;5072883;28;20068;-67
2023/10/01 08:14:34;;;;;;;22.50;7.60;;;;;;;16.67;100.00;102203.81;5072599;28;20040;-68
2023/10/01 08:17:08;;;;;;;22.00;7.75;;;;;;;17.00;100.00;102207.44;5072553;28;20044;-69
2023/10/01 08:19:44;;;;;;;21.20;7.65;;;;;;;16.98;100.00;102209.19;5073012;28;20028;-60
2023/10/01 08:22:14;;;;;;;20.95;7.53;;;;;;;17.07;100.00;102210.09;5068919;28;20487;-67
2023/10/01 08:24:45;;;;;;;21.00;7.57;;;;;;;17.30;100.00;102217.19;5068648;28;20078;-69
2023/10/01 08:27:29;;;;;;;20.50;7.43;;;;;;;17.53;100.00;102214.47;5068839;28;20111;-65
2023/10/01 08:29:59;;;;;;;21.80;7.60;;;;;;;17.66;100.00;102223.31;5068492;28;20040;-67
2023/10/01 08:32:38;;;;;;;21.55;7.88;;;;;;;17.64;100.00;102227.78;5068923;28;20036;-68
2023/10/01 08:35:07;;;;;;;21.00;7.22;;;;;;;17.81;100.00;102227.72;5070317;28;20130;-68
2023/10/01 08:37:37;;;;;;;20.75;7.55;;;;;;;18.12;100.00;102222.28;5071076;28;20511;-69
2023/10/01 08:40:13;;;;;;;21.08;7.63;;;;;;;18.20;100.00;102224.91;5072355;28;20025;-67
2023/10/01 08:42:44;;;;;;;21.23;7.03;;;;;;;18.32;100.00;102222.16;5074796;28;20079;-69
2023/10/01 08:45:12;;;;;;;20.90;7.07;;;;;;;18.56;100.00;102221.09;5076617;28;20058;-68
2023/10/01 08:47:38;;;;;;;21.17;7.30;;;;;;;18.79;100.00;102220.03;5075251;28;20059;-69
2023/10/01 08:53:00;;;;;;;20.67;7.28;;;;;;;19.46;100.00;102220.31;5076692;28;20036;-67
2023/10/01 08:58:41;;;;;;;21.35;7.68;;;;;;;19.61;100.00;102220.13;5071997;28;20506;-64
2023/10/01 09:01:12;;;;;;;21.33;7.45;;;;;;;19.67;100.00;102224.53;5075710;28;20040;-64
2023/10/01 09:03:39;;;;;;;22.15;8.00;;;;;;;19.82;100.00;102224.41;5072668;28;20029;-64
2023/10/01 09:06:24;;;;;;;21.23;7.82;;;;;;;19.85;100.00;102227.03;5076259;28;20376;-64
2023/10/01 09:08:54;;;;;;;21.13;7.32;;;;;;;20.46;100.00;102223.50;5074060;28;20421;-65
2023/10/01 09:11:31;;;;;;;21.15;7.53;;;;;;;21.04;100.00;102227.06;5076060;28;20025;-67
2023/10/01 09:13:58;;;;;;;20.60;7.38;;;;;;;21.73;100.00;102217.72;5072722;28;20021;-62
2023/10/01 09:16:32;;;;;;;22.35;7.53;;;;;;;21.52;100.00;102216.38;5076002;28;20024;-65
2023/10/01 09:19:29;;;;;;;21.63;7.68;;;;;;;21.39;100.00;102215.69;5072523;28;20036;-66
2023/10/01 09:21:54;;;;;;;20.60;7.50;;;;;;;21.20;100.00;102215.16;5075366;28;20032;-66
2023/10/01 09:24:39;;;;;;;21.00;7.57;;;;;;;21.29;100.00;102213.19;5075613;28;20048;-63
2023/10/01 09:27:09;;;;;;;22.02;7.90;;;;;;;21.14;100.00;102211.69;5075916;28;20035;-67
2023/10/01 09:29:45;;;;;;;20.88;7.22;;;;;;;21.08;100.00;102209.97;5075357;28;20090;-65
2023/10/01 09:32:11;;;;;;;21.45;7.30;;;;;;;21.33;100.00;102198.78;5075602;28;20115;-64
2023/10/01 09:34:46;;;;;;;21.17;7.50;;;;;;;21.76;100.00;102193.44;5072240;28;20434;-68
2023/10/01 09:37:35;;;;;;;20.98;6.85;;;;;;;22.21;100.00;102192.47;5072330;28;20107;-67
2023/10/01 09:40:05;;;;;;;21.40;7.45;;;;;;;22.28;100.00;102188.69;5075683;28;20028;-65
2023/10/01 09:42:44;;;;;;;20.75;7.20;;;;;;;22.24;100.00;102192.38;5075354;28;20028;-65
2023/10/01 09:45:26;;;;;;;20.40;7.00;;;;;;;22.62;100.00;102203.19;5072407;28;20025;-63
2023/10/01 09:48:07;;;;;;;20.38;6.85;;;;;;;23.35;100.00;102202.22;5075425;28;20039;-69
2023/10/01 09:50:44;;;;;;;20.85;7.10;;;;;;;23.77;100.00;102206.44;5074031;28;20465;-68
2023/10/01 09:53:14;;;;;;;20.63;6.72;;;;;;;23.94;100.00;102200.53;5071850;28;20033;-67
2023/10/01 09:55:55;;;;;;;20.85;6.78;;;;;;;24.11;100.00;102205.41;5075418;28;20507;-71
2023/10/01 09:58:25;;;;;;;20.83;7.50;;;;;;;24.22;100.00;102196.97;5075252;28;20051;-70
2023/10/01 10:00:51;;;;;;;20.58;6.70;;;;;;;24.17;100.00;102198.03;5075041;28;20020;-70
2023/10/01 10:03:19;;;;;;;20.08;7.13;;;;;;;24.07;100.00;102195.63;5075094;28;20155;-68
2023/10/01 10:05:46;;;;;;;20.23;7.00;;;;;;;24.33;100.00;102198.41;5075168;28;20028;-71
2023/10/01 10:08:20;;;;;;;20.90;6.47;;;;;;;25.14;100.00;102195.75;5075037;28;20024;-68
2023/10/01 10:10:52;;;;;;;20.25;6.95;;;;;;;25.83;100.00;102195.88;5074946;28;20032;-68
2023/10/01 10:13:48;;;;;;;20.63;6.72;;;;;;;25.72;100.00;102193.59;5074997;28;20111;-71
2023/10/01 10:16:31;;;;;;;20.48;6.75;;;;;;;26.21;100.00;102195.34;5072124;28;20028;-72
2023/10/01 10:19:04;;;;;;;20.42;6.78;;;;;;;26.32;100.00;102201.22;5074938;28;20097;-72
2023/10/01 10:22:16;;;;;;;20.73;7.38;;;;;;;26.03;100.00;102194.28;5075184;28;20032;-73
2023/10/01 10:24:47;;;;;;;19.85;6.78;;;;;;;25.39;100.00;102188.50;5066629;28;20123;-71
2023/10/01 10:27:19;;;;;;;20.58;6.93;;;;;;;25.74;100.00;102182.72;5072030;28;20365;-72
2023/10/01 10:29:57;;;;;;;21.55;6.93;;;;;;;25.95;100.00;102186.41;5074619;28;20103;-69
2023/10/01 10:33:29;;;;;;;20.40;6.78;;;;;;;26.19;100.00;102176.44;5074614;28;20120;-64
2023/10/01 10:36:33;;;;;;;19.88;6.53;;;;;;;26.20;100.00;102178.22;5061432;28;20086;-71
2023/10/01 10:38:58;;;;;;;19.83;6.65;;;;;;;26.19;100.00;102168.31;5073844;28;20174;-72
2023/10/01 10:41:25;;;;;;;21.23;6.82;;;;;;;26.57;100.00;102164.97;5074231;28;20071;-72
2023/10/01 10:44:08;;;;;;;20.00;6.68;;;;;;;27.23;100.00;102174.78;5074272;28;20024;-72
2023/10/01 10:47:03;;;;;;;20.20;6.50;;;;;;;27.95;100.00;102178.72;5074072;28;20024;-69
2023/10/01 10:49:51;;;;;;;21.23;6.70;;;;;;;28.79;92.52;102180.94;5066424;28;20075;-71
2023/10/01 10:52:31;;;;;;;20.75;6.78;;;;;;;29.33;83.15;102176.31;5071610;28;20032;-72
2023/10/01 10:55:18;;;;;;;20.20;6.85;;;;;;;28.75;83.55;102173.94;5074137;28;20028;-70
2023/10/01 10:57:51;;;;;;;19.65;6.45;;;;;;;28.15;81.98;102172.38;5071056;28;20028;-70
2023/10/01 11:00:24;;;;;;;21.05;6.60;;;;;;;27.86;81.77;102163.75;5073841;28;20017;-72
2023/10/01 11:02:56;;;;;;;20.05;6.68;;;;;;;28.47;85.56;102173.47;5074317;28;20029;-73
2023/10/01 11:05:28;;;;;;;20.80;6.43;;;;;;;29.17;83.67;102165.34;5073558;28;20375;-72
2023/10/01 11:08:00;;;;;;;19.88;6.65;;;;;;;29.16;75.50;102174.47;5072130;28;20052;-73
2023/10/01 11:10:46;;;;;;;21.13;6.80;;;;;;;29.13;80.79;102179.19;5073530;28;20036;-72
2023/10/01 11:13:13;;;;;;;19.73;6.45;;;;;;;29.26;72.25;102171.28;5073566;28;20032;-73
2023/10/01 11:15:42;;;;;;;20.27;6.63;;;;;;;28.70;74.76;102176.88;5073678;28;20036;-71
2023/10/01 11:18:09;;;;;;;20.42;6.50;;;;;;;29.48;71.14;102168.28;5073714;28;20383;-71
2023/10/01 11:20:45;;;;;;;20.73;6.82;;;;;;;29.90;72.27;102164.13;5073396;28;20025;-73
2023/10/01 11:23:12;;;;;;;20.77;6.57;;;;;;;30.23;65.18;102153.13;5073426;28;20391;-73
2023/10/01 11:25:40;;;;;;;21.73;7.10;;;;;;;29.81;65.81;102145.53;5073670;28;20472;-72
2023/10/01 11:28:06;;;;;;;20.42;6.47;;;;;;;29.76;67.83;102143.06;5073257;28;20523;-74
2023/10/01 11:30:43;;;;;;;20.70;6.72;;;;;;;29.94;71.38;102149.38;5073448;28;20035;-73
2023/10/01 11:33:13;;;;;;;20.85;6.95;;;;;;;29.20;66.65;102148.84;5073510;28;20082;-70
2023/10/01 11:35:59;;;;;;;19.95;6.40;;;;;;;29.04;69.25;102147.91;5073373;28;20035;-71
2023/10/01 11:38:26;;;;;;;19.98;6.40;;;;;;;28.89;68.60;102141.41;5071232;28;20032;-69
2023/10/01 11:41:06;;;;;;;20.58;7.05;;;;;;;28.83;75.31;102144.47;5073260;28;20024;-73
2023/10/01 11:43:59;;;;;;;21.70;7.15;;;;;;;28.80;72.55;102133.75;5073348;28;20029;-72
2023/10/01 11:46:29;;;;;;;20.58;6.80;;;;;;;28.88;73.51;102134.25;5070585;28;20047;-72
2023/10/01 11:48:59;;;;;;;21.08;7.05;;;;;;;28.91;77.00;102130.44;5073032;28;20027;-72
2023/10/01 11:51:30;;;;;;;19.40;6.25;;;;;;;29.94;72.68;102126.69;5073215;28;20039;-72
2023/10/01 11:54:09;;;;;;;20.23;6.85;;;;;;;29.97;63.46;102126.50;5073220;28;20479;-73
2023/10/01 11:56:37;;;;;;;20.88;6.47;;;;;;;29.46;62.84;102123.88;5073071;28;20047;-72
2023/10/01 11:59:17;;;;;;;19.75;6.72;;;;;;;29.32;66.82;102130.13;5072801;28;20045;-73
2023/10/01 12:02:18;;;;;;;21.85;6.95;;;;;;;29.20;64.30;102127.06;5068769;28;20029;-73
2023/10/01 12:04:44;;;;;;;20.83;6.78;;;;;;;29.51;65.74;102106.31;5068955;28;20541;-72